Time;durP1;ratioP1;P1;durP2;ratioP2;P2;SDS_P1;SDS_P2;PMS_P1;PMS_P2;Temp;Humidity;BMP_temperature;BMP_pressure;BME280_temperature;BME280_humidity;BME280_pressure;Samples;Min_cycle;Max_cycle;Signal;HPM_P1;HPM_P2
2021/05/14 00:01:47;;;;;;;;;;;;;;;15.31;70.02;99922.06;5113254;28;20407;-79
2021/05/14 00:04:51;;;;;;;7.20;6.50;;;;;;;15.13;70.93;99926.47;5120312;28;19912;-79
2021/05/14 00:10:39;;;;;;;6.78;5.30;;;;;;;15.65;67.82;99914.81;5112630;28;20526;-79
2021/05/14 00:13:24;;;;;;;7.60;5.45;;;;;;;15.48;68.05;99913.38;5112297;28;20069;-79
2021/05/14 00:16:09;;;;;;;6.70;5.40;;;;;;;15.43;68.89;99921.09;5109598;28;20046;-79
2021/05/14 00:18:54;;;;;;;;;;;;;;;15.40;68.84;99917.94;5112111;28;20411;-79
2021/05/14 00:21:39;;;;;;;9.85;6.13;;;;;;;15.35;69.08;99909.22;5112079;28;19912;-79
2021/05/14 00:24:24;;;;;;;;;;;;;;;15.29;69.74;99910.69;5109914;28;20114;-80
2021/05/14 00:27:09;;;;;;;8.93;6.93;;;;;;;15.26;69.74;99906.75;5112568;28;19920;-79
2021/05/14 00:29:54;;;;;;;8.13;6.47;;;;;;;15.21;69.72;99898.84;5099614;28;20047;-77
2021/05/14 00:32:39;;;;;;;;;;;;;;;15.24;69.76;99911.00;5098822;28;20063;-77
2021/05/14 00:35:24;;;;;;;7.63;6.50;;;;;;;15.35;69.87;99898.25;5085438;28;19916;-77
2021/05/14 00:38:09;;;;;;;8.32;5.10;;;;;;;15.34;68.79;99897.47;5100129;28;20542;-77
2021/05/14 00:41:12;;;;;;;7.95;5.68;;;;;;;15.27;68.91;99896.56;5097067;28;20055;-77
2021/05/14 00:43:57;;;;;;;7.18;6.28;;;;;;;15.23;69.97;99902.00;5102675;28;20087;-77
2021/05/14 00:46:43;;;;;;;6.93;6.22;;;;;;;15.19;69.80;99890.19;5102211;28;20051;-77
2021/05/14 00:49:28;;;;;;;5.45;4.88;;;;;;;15.28;68.98;99893.47;5098851;28;20412;-77
2021/05/14 00:52:15;;;;;;;;;;;;;;;15.14;68.52;99893.22;5111261;28;20158;-79
2021/05/14 00:55:00;;;;;;;12.38;8.07;;;;;;;14.95;70.43;99887.81;5110930;28;19912;-79
2021/05/14 00:58:04;;;;;;;9.90;8.85;;;;;;;14.61;72.18;99902.44;5109554;28;20051;-79
2021/05/14 01:00:49;;;;;;;10.45;9.20;;;;;;;14.52;72.33;99895.25;5112696;28;20430;-79
2021/05/14 01:03:34;;;;;;;;;;;;;;;15.09;68.36;99893.53;5107598;28;20526;-78
2021/05/14 01:06:19;;;;;;;7.95;7.15;;;;;;;15.00;68.04;99882.03;5107184;28;19916;-78
2021/05/14 01:09:05;;;;;;;8.35;7.10;;;;;;;14.86;68.71;99884.53;5107651;28;20043;-77
2021/05/14 01:12:10;;;;;;;7.80;6.72;;;;;;;14.73;69.71;99885.88;5098063;28;20051;-79
2021/05/14 01:14:55;;;;;;;9.45;7.38;;;;;;;14.78;69.52;99885.56;5104994;28;20046;-78
2021/05/14 01:17:40;;;;;;;;;;;;;;;14.90;69.31;99888.13;5109627;28;20067;-78
2021/05/14 01:20:30;;;;;;;6.80;6.10;;;;;;;14.87;68.75;99883.38;5105687;28;20275;-78
2021/05/14 01:23:15;;;;;;;7.10;5.88;;;;;;;14.73;68.07;99886.63;5104452;28;20038;-78
2021/05/14 01:26:00;;;;;;;;;;;;;;;14.57;68.69;99883.22;5108462;28;20043;-79
2021/05/14 01:28:46;;;;;;;6.47;5.50;;;;;;;14.52;69.00;99875.31;5105707;28;19912;-78
2021/05/14 01:31:33;;;;;;;8.32;7.47;;;;;;;14.49;69.49;99879.53;5106523;28;20046;-77
2021/05/14 01:37:21;;;;;;;7.88;7.00;;;;;;;14.50;68.62;99875.66;5107351;28;19911;-81
2021/05/14 01:40:07;;;;;;;;;;;;;;;14.37;69.44;99879.72;5111337;28;20042;-80
2021/05/14 01:42:52;;;;;;;12.65;9.02;;;;;;;14.33;70.04;99886.22;5114839;28;19904;-79
2021/05/14 01:45:36;;;;;;;;;;;;;;;13.94;71.44;99890.88;5105170;28;20047;-80
2021/05/14 01:51:28;;;;;;;11.07;8.75;;;;;;;14.29;70.40;99886.16;5104873;28;20415;-80
2021/05/14 01:54:13;;;;;;;8.48;7.43;;;;;;;14.41;70.25;99894.25;5103701;28;20059;-80
2021/05/14 01:56:58;;;;;;;;;;;;;;;14.50;70.09;99891.28;5108234;28;20054;-80
2021/05/14 01:59:43;;;;;;;9.35;7.93;;;;;;;14.55;69.58;99885.50;5106377;28;19912;-80
2021/05/14 02:02:28;;;;;;;;;;;;;;;14.57;69.40;99893.38;5093690;28;20047;-80
2021/05/14 02:05:13;;;;;;;11.13;9.43;;;;;;;14.48;69.65;99883.44;5111099;28;19916;-80
2021/05/14 02:07:58;;;;;;;11.13;8.02;;;;;;;14.41;69.63;99883.31;5108473;28;20054;-80
2021/05/14 02:10:43;;;;;;;9.05;7.25;;;;;;;14.45;69.88;99881.41;5105721;28;20043;-81
2021/05/14 02:13:28;;;;;;;;;;;;;;;14.49;69.17;99887.75;5112250;28;20055;-79
2021/05/14 02:16:14;;;;;;;;;;;;;;;14.53;68.64;99885.88;5109952;28;19912;-80
2021/05/14 02:18:58;;;;;;;8.20;7.22;;;;;;;14.43;68.53;99886.44;4373621;28;20797611;-81
2021/05/14 02:22:05;;;;;;;11.52;8.05;;;;;;;14.43;68.89;99877.44;5107719;28;20040;-82
2021/05/14 02:24:50;;;;;;;9.77;7.57;;;;;;;14.37;69.02;99881.66;5104954;28;20039;-81
2021/05/14 02:27:35;;;;;;;;;;;;;;;14.40;68.36;99880.91;5104292;28;20051;-82
2021/05/14 02:30:39;;;;;;;8.48;7.57;;;;;;;14.18;67.97;99887.88;5110679;28;19912;-78
2021/05/14 02:33:44;;;;;;;12.25;10.40;;;;;;;13.99;68.83;99874.19;5106239;28;20043;-78
2021/05/14 02:36:29;;;;;;;15.30;8.07;;;;;;;14.19;70.18;99870.31;5109673;28;20047;-78
2021/05/14 02:39:33;;;;;;;15.80;10.80;;;;;;;14.19;69.30;99873.06;5107585;28;20051;-79
2021/05/14 02:42:37;;;;;;;14.75;10.95;;;;;;;14.14;69.23;99873.34;5103839;28;20054;-79
2021/05/14 02:45:24;;;;;;;13.93;12.02;;;;;;;13.84;71.69;99872.31;5109528;28;20042;-78
2021/05/14 02:48:09;;;;;;;14.40;12.27;;;;;;;14.07;70.50;99867.72;5107368;28;20039;-78
2021/05/14 02:50:55;;;;;;;15.18;11.27;;;;;;;14.20;70.10;99871.91;5111276;28;20063;-78
2021/05/14 02:53:40;;;;;;;11.35;8.48;;;;;;;14.16;70.18;99879.25;5108555;28;20404;-77
2021/05/14 02:59:32;;;;;;;17.38;9.68;;;;;;;14.17;68.20;99874.56;5112521;28;20031;-77
2021/05/14 03:02:17;;;;;;;11.85;10.20;;;;;;;14.08;69.66;99875.56;5112226;28;20047;-77
2021/05/14 03:05:03;;;;;;;15.73;10.60;;;;;;;13.91;70.30;99876.00;5110896;28;20071;-80
2021/05/14 03:07:48;;;;;;;15.02;10.75;;;;;;;13.90;70.60;99873.59;5115313;28;20051;-79
2021/05/14 03:10:33;;;;;;;;;;;;;;;13.99;70.62;99879.66;5109493;28;20043;-79
2021/05/14 03:13:18;;;;;;;14.97;10.17;;;;;;;13.90;70.61;99877.13;5110157;28;19912;-79
2021/05/14 03:16:23;;;;;;;13.90;11.07;;;;;;;13.67;70.93;99873.47;5089427;28;20048;-79
2021/05/14 03:19:08;;;;;;;15.68;8.75;;;;;;;13.75;71.25;99877.97;5095946;28;20047;-79
2021/05/14 03:21:53;;;;;;;;;;;;;;;13.90;71.15;99879.06;5109934;28;20046;-80
2021/05/14 03:24:38;;;;;;;14.45;10.50;;;;;;;14.01;70.14;99882.84;5112304;28;19912;-79
2021/05/14 03:27:23;;;;;;;12.82;10.25;;;;;;;13.96;70.20;99889.38;5111679;28;20047;-79
2021/05/14 03:33:32;;;;;;;14.05;9.73;;;;;;;14.06;70.32;99888.03;5113083;28;20047;-79
2021/05/14 03:36:20;;;;;;;17.45;10.98;;;;;;;14.09;70.29;99888.09;5110378;28;20035;-79
2021/05/14 03:42:23;;;;;;;21.88;11.35;;;;;;;14.08;70.13;99894.69;5108207;28;20566;-78
2021/05/14 03:45:09;;;;;;;21.90;11.20;;;;;;;14.06;70.41;99890.75;5094735;28;20051;-80
2021/05/14 03:47:56;;;;;;;18.33;11.50;;;;;;;14.11;70.04;99890.47;5092182;28;20051;-79
2021/05/14 03:50:59;;;;;;;17.83;10.23;;;;;;;14.09;69.22;99899.03;5090912;28;20055;-80
2021/05/14 03:53:44;;;;;;;18.35;10.73;;;;;;;13.99;68.99;99898.78;5111010;28;20039;-80
2021/05/14 03:56:30;;;;;;;26.75;12.02;;;;;;;13.79;69.76;99897.97;5112752;28;20043;-79
2021/05/14 03:59:34;;;;;;;18.30;11.65;;;;;;;13.68;70.79;99892.25;5104994;28;20058;-79
2021/05/14 04:02:20;;;;;;;15.80;11.10;;;;;;;13.85;70.43;99893.81;5110720;28;20047;-79
2021/05/14 04:05:06;;;;;;;12.77;10.77;;;;;;;13.83;70.92;99896.09;5090541;28;20052;-79
2021/05/14 04:07:51;;;;;;;18.27;10.55;;;;;;;13.83;70.08;99900.78;5107101;28;20051;-79
2021/05/14 04:16:31;;;;;;;15.52;11.05;;;;;;;13.71;70.87;99905.19;5117587;28;20046;-79
2021/05/14 04:19:16;;;;;;;19.92;12.38;;;;;;;13.85;70.71;99909.41;5130784;22;20080;-76
2021/05/14 04:22:03;;;;;;;;;;;;;;;13.79;70.80;99910.84;5064601;28;20048;-77
2021/05/14 04:25:07;;;;;;;19.05;13.38;;;;;;;13.80;71.38;99907.75;5041805;28;19920;-77
2021/05/14 04:27:52;;;;;;;20.80;13.80;;;;;;;13.77;71.37;99904.91;5039086;28;20160;-77
2021/05/14 04:30:38;;;;;;;;;;;;;;;13.79;71.18;99908.09;5050475;28;20051;-78
2021/05/14 04:33:23;;;;;;;;;;;;;;;13.74;71.39;99906.44;5050785;28;19921;-77
2021/05/14 04:36:09;;;;;;;17.47;13.53;;;;;;;13.67;71.96;99909.78;5050505;28;19920;-76
2021/05/14 04:38:53;;;;;;;12.98;10.25;;;;;;;13.79;72.03;99911.63;5061139;28;20056;-76
2021/05/14 04:41:39;;;;;;;15.57;10.05;;;;;;;13.93;72.23;99919.34;5053546;28;20036;-77
2021/05/14 04:44:42;;;;;;;20.17;14.75;;;;;;;14.17;71.02;99921.06;5055150;28;20048;-76
2021/05/14 04:47:28;;;;;;;24.25;15.27;;;;;;;14.12;71.38;99919.38;5054714;28;20543;-76
2021/05/14 04:50:17;;;;;;;21.85;12.50;;;;;;;14.18;71.58;99928.09;5052442;28;20047;-74
2021/05/14 04:53:07;;;;;;;19.13;14.90;;;;;;;14.32;71.09;99926.47;5070425;28;20055;-75
2021/05/14 04:55:51;;;;;;;19.38;15.00;;;;;;;14.14;71.75;99933.50;5054261;28;20420;-75
2021/05/14 04:58:36;;;;;;;14.85;11.50;;;;;;;14.28;71.84;99933.78;5052647;28;20543;-74
2021/05/14 05:01:41;;;;;;;25.60;16.10;;;;;;;14.27;72.32;99932.22;5051086;28;20052;-75
2021/05/14 05:04:26;;;;;;;22.33;11.60;;;;;;;14.31;72.53;99935.81;5053549;28;20456;-77
2021/05/14 05:10:33;;;;;;;19.27;15.70;;;;;;;14.33;73.63;99938.97;5053240;28;20081;-76
2021/05/14 05:13:18;;;;;;;21.80;15.68;;;;;;;14.48;73.95;99943.59;5051623;28;20116;-78
2021/05/14 05:16:04;;;;;;;23.08;11.13;;;;;;;14.92;71.49;99944.09;5056433;28;20053;-83
2021/05/14 05:18:49;;;;;;;16.83;13.65;;;;;;;15.27;70.09;99952.16;5039503;28;20044;-81
2021/05/14 05:21:53;;;;;;;27.45;15.43;;;;;;;15.47;70.05;99958.34;5052805;28;20048;-83
2021/05/14 05:24:37;;;;;;;19.48;12.68;;;;;;;16.38;65.25;99955.41;5054937;28;20417;-83
2021/05/14 05:27:22;;;;;;;;;;;;;;;16.71;64.12;99956.66;5051035;28;20048;-80
2021/05/14 05:30:07;;;;;;;19.50;14.18;;;;;;;16.59;64.82;99954.94;5047611;28;19925;-80
2021/05/14 05:32:53;;;;;;;22.67;12.50;;;;;;;16.61;64.98;99963.56;5048929;28;20048;-81
2021/05/14 05:35:38;;;;;;;17.10;12.20;;;;;;;16.77;63.79;99955.91;5053871;28;20413;-82
2021/05/14 05:38:24;;;;;;;;;;;;;;;16.87;63.81;99959.94;5052124;28;20052;-78
2021/05/14 05:41:09;;;;;;;23.27;13.95;;;;;;;16.85;63.49;99976.81;5053635;28;19913;-83
2021/05/14 05:44:13;;;;;;;18.23;14.73;;;;;;;16.39;65.51;99968.00;5053284;28;20071;-83
2021/05/14 05:46:58;;;;;;;15.57;11.68;;;;;;;16.65;64.14;99969.91;5065217;28;20401;-83
2021/05/14 05:50:04;;;;;;;14.45;11.27;;;;;;;16.71;63.62;99968.38;5050082;28;20056;-83
2021/05/14 05:52:51;;;;;;;18.73;12.02;;;;;;;16.30;65.49;99974.91;5056053;28;20048;-83
2021/05/14 05:55:37;;;;;;;15.60;12.25;;;;;;;16.27;65.81;99982.72;5055273;28;20035;-82
2021/05/14 05:58:22;;;;;;;12.27;11.02;;;;;;;16.75;64.09;99980.22;5067135;28;20063;-82
2021/05/14 06:01:07;;;;;;;;;;;;;;;16.52;65.73;99982.25;5072630;28;20047;-79
2021/05/14 06:03:52;;;;;;;13.80;9.77;;;;;;;16.48;65.51;99975.94;5076409;28;19912;-81
2021/05/14 06:06:37;;;;;;;12.93;10.57;;;;;;;16.42;65.41;99982.91;5074859;28;20526;-80
2021/05/14 06:12:26;;;;;;;14.40;9.40;;;;;;;17.04;63.32;99982.13;5077464;28;20051;-80
2021/05/14 06:15:30;;;;;;;9.73;7.50;;;;;;;17.47;61.14;99983.31;5059026;28;20504;-80
2021/05/14 06:18:16;;;;;;;9.20;7.70;;;;;;;17.48;60.98;99990.41;5078951;28;20503;-78
2021/05/14 06:21:04;;;;;;;9.13;7.18;;;;;;;17.35;61.69;100000.09;5074355;28;20051;-78
2021/05/14 06:23:48;;;;;;;8.77;6.10;;;;;;;17.60;61.35;99996.81;5075267;28;20051;-78
2021/05/14 06:26:33;;;;;;;;;;;;;;;17.85;60.70;100003.31;5063227;28;20523;-76
2021/05/14 06:29:18;;;;;;;8.63;7.15;;;;;;;17.98;60.36;100001.81;5056215;28;19917;-79
2021/05/14 06:32:03;;;;;;;;;;;;;;;18.06;59.32;100006.22;5056861;28;20052;-78
2021/05/14 06:34:50;;;;;;;9.43;7.00;;;;;;;17.72;59.92;99999.28;5059617;28;19912;-78
2021/05/14 06:37:37;;;;;;;10.48;6.40;;;;;;;18.49;58.16;100000.97;5061662;28;20044;-78
2021/05/14 06:40:22;;;;;;;8.75;7.05;;;;;;;18.72;57.45;99993.25;5058661;28;20039;-76
2021/05/14 06:43:07;;;;;;;6.93;6.22;;;;;;;19.14;55.53;99998.09;5064060;28;20048;-78
2021/05/14 06:45:52;;;;;;;8.60;6.47;;;;;;;19.38;54.96;100000.13;5059221;28;20044;-78
2021/05/14 06:49:17;;;;;;;9.13;6.35;;;;;;;19.93;53.45;100003.31;5056879;28;20056;-76
2021/05/14 06:52:02;;;;;;;7.50;6.18;;;;;;;19.82;53.07;100001.72;5061247;28;20575;-78
2021/05/14 06:54:47;;;;;;;7.72;6.15;;;;;;;20.66;51.68;100000.03;5059780;28;20048;-78
2021/05/14 06:57:33;;;;;;;12.05;5.60;;;;;;;21.20;50.11;99998.59;5063790;28;20405;-77
2021/05/14 07:00:19;;;;;;;6.88;5.63;;;;;;;21.70;49.07;99999.03;5060246;28;20048;-77
2021/05/14 07:03:04;;;;;;;5.85;5.28;;;;;;;21.87;49.05;100011.94;5059639;28;20048;-78
2021/05/14 07:05:49;;;;;;;8.98;5.28;;;;;;;21.99;48.70;100014.22;5057520;28;20060;-78
2021/05/14 07:11:57;;;;;;;7.30;4.85;;;;;;;21.37;47.96;100008.75;5057199;28;20048;-77
2021/05/14 07:14:42;;;;;;;7.68;5.15;;;;;;;22.36;46.27;100016.22;5061234;28;20421;-78
2021/05/14 07:17:27;;;;;;;6.50;4.78;;;;;;;23.52;43.06;100012.44;5059504;28;20056;-78
2021/05/14 07:20:50;;;;;;;6.97;5.15;;;;;;;22.04;46.36;100013.00;5056581;28;20412;-78
2021/05/14 07:23:35;;;;;;;4.82;3.47;;;;;;;23.97;41.32;100026.78;5060669;28;20056;-78
2021/05/14 07:26:21;;;;;;;3.65;3.00;;;;;;;25.30;36.93;100027.34;5053920;28;20543;-77
2021/05/14 07:29:06;;;;;;;6.07;4.00;;;;;;;24.79;38.73;100026.06;5060743;28;20104;-78
2021/05/14 07:32:10;;;;;;;4.93;4.28;;;;;;;26.86;35.68;100024.19;5060239;28;20040;-77
2021/05/14 07:34:55;;;;;;;4.82;3.30;;;;;;;30.39;28.16;100031.47;5059318;28;20060;-78
2021/05/14 07:37:41;;;;;;;3.30;2.80;;;;;;;26.56;33.66;100025.44;5045061;28;20127;-78
2021/05/14 07:40:26;;;;;;;3.15;2.63;;;;;;;25.69;35.48;100018.94;5060687;28;20044;-77
2021/05/14 07:43:11;;;;;;;4.63;3.30;;;;;;;26.59;34.15;100020.97;5065569;28;20102;-78
2021/05/14 07:49:19;;;;;;;4.90;3.30;;;;;;;24.51;37.05;100033.75;5058455;28;20044;-77
2021/05/14 07:52:04;;;;;;;4.63;3.05;;;;;;;24.47;37.88;100033.03;5066861;28;20415;-76
2021/05/14 07:54:49;;;;;;;5.97;3.22;;;;;;;25.08;36.82;100030.63;5047929;28;20400;-77
2021/05/14 07:57:34;;;;;;;4.38;2.92;;;;;;;24.76;37.55;100032.47;5067915;28;20044;-77
2021/05/14 08:00:19;;;;;;;5.07;3.17;;;;;;;21.82;43.54;100023.44;5069818;28;20047;-77
2021/05/14 08:03:05;;;;;;;3.80;3.40;;;;;;;22.02;43.87;100030.03;5048557;28;20048;-76
2021/05/14 08:05:50;;;;;;;3.58;3.20;;;;;;;21.93;44.10;100035.22;5065515;28;20091;-79
2021/05/14 08:11:38;;;;;;;4.07;3.55;;;;;;;22.34;43.00;100040.03;5068004;28;20047;-77
2021/05/14 08:17:27;;;;;;;3.28;2.80;;;;;;;29.90;28.33;100054.00;5066115;28;20036;-76
2021/05/14 08:20:30;;;;;;;3.60;2.97;;;;;;;27.07;32.38;100051.47;5044950;28;20060;-76
2021/05/14 08:23:18;;;;;;;4.15;2.65;;;;;;;31.52;25.36;100045.19;5048210;28;20048;-77
2021/05/14 08:26:03;;;;;;;5.65;2.42;;;;;;;35.08;20.50;100057.63;5063727;28;20056;-76
2021/05/14 08:28:48;;;;;;;4.57;2.03;;;;;;;34.26;20.99;100061.84;5045295;28;20044;-76
2021/05/14 08:31:52;;;;;;;3.08;2.30;;;;;;;32.89;22.99;100059.13;5045588;28;20516;-76
2021/05/14 08:34:38;;;;;;;;;;;;;;;35.40;19.88;100061.28;5056846;28;20040;-76
2021/05/14 08:37:22;;;;;;;3.30;2.42;;;;;;;38.32;16.72;100070.69;5058030;28;19913;-77
2021/05/14 08:40:27;;;;;;;3.15;2.60;;;;;;;31.15;24.22;100052.94;5058020;28;20047;-76
2021/05/14 08:43:12;;;;;;;5.60;2.60;;;;;;;27.46;29.95;100057.91;5075016;28;20051;-76
2021/05/14 08:45:59;;;;;;;4.45;3.55;;;;;;;25.65;34.20;100051.63;5078966;28;20055;-76
2021/05/14 08:49:04;;;;;;;3.47;3.17;;;;;;;25.10;36.22;100053.22;5073315;28;20056;-78
2021/05/14 08:51:52;;;;;;;5.82;3.20;;;;;;;24.46;36.62;100053.69;5074210;28;20060;-77
2021/05/14 08:54:42;;;;;;;4.70;3.65;;;;;;;22.10;43.15;100045.38;5078074;28;20047;-80
2021/05/14 09:00:31;;;;;;;8.20;4.05;;;;;;;21.57;44.06;100034.72;5075246;28;20416;-78
2021/05/14 09:03:17;;;;;;;7.80;4.35;;;;;;;22.70;41.84;100041.22;5064706;28;20047;-77
2021/05/14 09:06:03;;;;;;;5.70;4.47;;;;;;;24.33;39.34;100046.41;5077914;28;20047;-78
2021/05/14 09:08:57;;;;;;;13.35;4.20;;;;;;;29.96;28.72;100054.97;5076573;28;20428;-77
2021/05/14 09:11:43;;;;;;;6.28;3.88;;;;;;;33.53;22.96;100062.81;5078836;28;20048;-77
2021/05/14 09:14:38;;;;;;;9.38;4.13;;;;;;;35.59;19.85;100059.63;5076783;28;20511;-76
2021/05/14 09:17:26;;;;;;;6.15;3.85;;;;;;;33.81;22.02;100052.00;5079151;28;20516;-76
2021/05/14 09:20:11;;;;;;;6.20;3.50;;;;;;;32.53;24.73;100049.72;5075393;28;20043;-77
2021/05/14 09:23:15;;;;;;;6.15;4.13;;;;;;;30.85;25.72;100051.91;5071802;28;20055;-77
2021/05/14 09:26:05;;;;;;;5.53;4.07;;;;;;;32.67;23.28;100045.41;5076962;28;20060;-77
2021/05/14 09:28:52;;;;;;;4.60;2.85;;;;;;;31.80;23.81;100036.16;5075329;28;20059;-78
2021/05/14 09:31:37;;;;;;;8.68;3.53;;;;;;;30.85;24.38;100040.66;5073522;28;20397;-77
2021/05/14 09:34:32;;;;;;;4.20;3.20;;;;;;;34.87;19.77;100042.00;5076720;28;20432;-77
2021/05/14 09:37:50;;;;;;;5.75;3.42;;;;;;;35.14;19.95;100052.03;5073402;28;20056;-77
2021/05/14 09:40:35;;;;;;;6.97;3.50;;;;;;;31.37;23.74;100040.25;5075178;28;20516;-76
2021/05/14 09:43:24;;;;;;;7.15;3.42;;;;;;;30.88;24.51;100034.13;5075480;28;20043;-76
2021/05/14 09:46:42;;;;;;;8.38;4.93;;;;;;;28.94;27.98;100037.34;5074611;28;20056;-77
2021/05/14 09:53:05;;;;;;;4.47;3.08;;;;;;;36.98;17.72;100050.97;5077786;28;20063;-76
2021/05/14 09:55:56;;;;;;;9.05;3.65;;;;;;;37.19;17.49;100048.69;5070703;28;20040;-75
2021/05/14 09:58:51;;;;;;;5.15;3.10;;;;;;;35.67;18.35;100042.19;5030577;28;20040;-77
2021/05/14 10:01:36;;;;;;;7.75;3.20;;;;;;;38.82;16.52;100047.69;5053376;28;20036;-76
2021/05/14 10:04:20;;;;;;;4.70;2.92;;;;;;;33.44;21.47;100031.91;5054853;28;20051;-77
2021/05/14 10:07:05;;;;;;;6.35;4.30;;;;;;;29.40;27.37;100030.00;5052823;28;20052;-77
2021/05/14 10:09:53;;;;;;;9.52;4.97;;;;;;;28.39;29.81;100020.88;5056661;28;20052;-77
2021/05/14 10:12:58;;;;;;;4.68;3.50;;;;;;;34.12;20.76;100033.66;5056562;28;20516;-78
2021/05/14 10:15:43;;;;;;;3.53;2.97;;;;;;;35.84;18.56;100028.91;5061941;28;20047;-78
2021/05/14 10:18:29;;;;;;;4.15;3.33;;;;;;;34.28;20.99;100031.09;5059463;28;20048;-77
2021/05/14 10:21:15;;;;;;;4.88;2.97;;;;;;;31.71;23.77;100010.13;5063663;23;20667;-80
2021/05/14 10:24:00;;;;;;;3.80;3.00;;;;;;;31.59;23.04;100008.31;5028370;28;20052;-80
2021/05/14 10:26:45;;;;;;;6.00;3.20;;;;;;;28.88;27.56;100000.75;5039028;28;20057;-81
2021/05/14 10:29:55;;;;;;;8.90;4.68;;;;;;;29.72;28.61;100013.44;5041803;28;20052;-80
2021/05/14 10:32:40;;;;;;;4.60;3.80;;;;;;;31.18;25.25;100013.47;5023184;28;20064;-80
2021/05/14 10:35:28;;;;;;;4.32;3.60;;;;;;;35.61;19.33;100022.31;5021281;28;20048;-80
2021/05/14 10:38:13;;;;;;;11.10;4.18;;;;;;;31.99;23.61;100008.69;5014148;28;20049;-80
2021/05/14 10:40:58;;;;;;;4.63;3.55;;;;;;;31.51;24.40;100001.44;5013799;28;20049;-79
2021/05/14 10:44:04;;;;;;;4.47;3.47;;;;;;;35.95;18.85;100006.34;5025713;28;20041;-80
2021/05/14 10:46:49;;;;;;;4.40;3.17;;;;;;;35.76;18.65;100008.06;5018635;28;20049;-80
2021/05/14 10:49:41;;;;;;;3.33;2.90;;;;;;;33.66;21.07;100010.97;5021197;28;20052;-80
2021/05/14 10:53:08;;;;;;;6.85;3.55;;;;;;;37.84;16.29;100012.25;5007592;28;20096;-79
2021/05/14 10:55:54;;;;;;;4.45;3.42;;;;;;;29.49;26.04;100005.59;5020252;28;20053;-79
2021/05/14 10:58:46;;;;;;;6.03;3.58;;;;;;;27.84;29.14;99988.81;5022480;28;20044;-79
2021/05/14 11:01:39;;;;;;;6.00;3.17;;;;;;;36.54;17.66;100005.53;5023932;28;20044;-80
2021/05/14 11:04:45;;;;;;;11.88;3.10;;;;;;;37.35;17.20;99994.00;5029255;28;20068;-80
2021/05/14 11:07:48;;;;;;;4.07;3.00;;;;;;;37.98;16.44;99999.81;5030719;28;20060;-79
2021/05/14 11:10:52;;;;;;;5.65;2.47;;;;;;;37.17;16.57;99992.50;5013246;28;20402;-83
2021/05/14 11:13:51;;;;;;;6.15;2.78;;;;;;;35.66;18.09;99992.53;5027105;28;20047;-80
2021/05/14 11:16:40;;;;;;;4.95;2.75;;;;;;;35.96;18.34;99990.91;5025457;28;20045;-80
2021/05/14 11:19:26;;;;;;;4.68;2.78;;;;;;;38.03;16.81;99995.44;5012519;28;20052;-80
2021/05/14 11:22:15;;;;;;;8.10;3.10;;;;;;;40.66;13.76;100000.25;5009988;28;20048;-80
2021/05/14 11:25:00;;;;;;;8.20;2.47;;;;;;;42.08;12.65;99990.97;5034431;28;20048;-80
2021/05/14 11:27:48;;;;;;;9.65;3.13;;;;;;;38.45;15.35;99980.00;5020873;28;20045;-81
2021/05/14 11:30:33;;;;;;;6.68;2.95;;;;;;;40.32;14.08;99983.63;5020034;28;20053;-80
2021/05/14 11:33:36;;;;;;;4.90;2.60;;;;;;;40.90;13.10;99983.78;5018744;28;20410;-80
2021/05/14 11:36:25;;;;;;;7.30;2.42;;;;;;;43.95;10.86;99979.53;5020224;28;20081;-80
2021/05/14 11:39:23;;;;;;;5.25;2.25;;;;;;;37.93;15.54;99955.16;5016799;28;20040;-79
2021/05/14 11:42:16;;;;;;;5.90;2.72;;;;;;;37.70;15.01;99956.53;5023659;28;20555;-79
2021/05/14 11:45:09;;;;;;;4.72;2.65;;;;;;;34.82;18.47;99946.66;5015808;28;20054;-80
2021/05/14 11:48:00;;;;;;;4.68;3.13;;;;;;;37.17;16.41;99960.53;5026114;28;20520;-80
2021/05/14 11:51:03;;;;;;;6.18;2.80;;;;;;;37.37;15.33;99950.94;5028072;28;20044;-80
2021/05/14 11:53:48;;;;;;;4.03;2.78;;;;;;;38.03;15.55;99952.84;5025178;28;20041;-81
2021/05/14 11:56:33;;;;;;;5.25;2.70;;;;;;;38.04;16.26;99955.16;5027243;28;20109;-84
2021/05/14 11:59:22;;;;;;;7.30;2.83;;;;;;;38.21;15.80;99955.03;5036993;28;20056;-78
2021/05/14 12:02:25;;;;;;;4.57;2.60;;;;;;;34.85;19.17;99927.91;5033582;28;20441;-78
2021/05/14 12:05:13;;;;;;;6.90;2.92;;;;;;;32.61;21.58;99929.81;5034773;28;20060;-78
2021/05/14 12:08:13;;;;;;;6.55;3.13;;;;;;;35.07;19.80;99919.63;5023088;28;20056;-79
2021/05/14 12:10:57;;;;;;;7.60;3.38;;;;;;;33.09;20.30;99927.56;5026732;28;20053;-78
2021/05/14 12:13:44;;;;;;;3.55;2.08;;;;;;;35.31;17.65;99931.38;5026971;28;20053;-77
2021/05/14 12:16:29;;;;;;;3.28;2.17;;;;;;;34.96;17.66;99917.47;5001794;28;20410;-78
2021/05/14 12:22:17;;;;;;;7.93;3.33;;;;;;;30.16;25.02;99917.88;5013262;28;20049;-76
2021/05/14 12:25:02;;;;;;;8.13;2.78;;;;;;;29.05;26.98;99918.09;5014120;28;20057;-76
2021/05/14 12:28:06;;;;;;;3.97;2.75;;;;;;;27.11;29.09;99920.97;5019038;28;20410;-76
2021/05/14 12:30:52;;;;;;;4.65;2.47;;;;;;;26.14;30.52;99915.84;5014973;28;20045;-76
2021/05/14 12:34:09;;;;;;;4.65;2.67;;;;;;;25.23;32.00;99916.22;5012408;28;20057;-76
2021/05/14 12:36:57;;;;;;;5.38;2.45;;;;;;;24.54;34.13;99913.34;4999774;28;20057;-77
2021/05/14 12:39:51;;;;;;;8.65;2.50;;;;;;;23.95;36.23;99929.19;5013115;28;20053;-77
2021/05/14 12:45:40;;;;;;;7.10;3.47;;;;;;;23.51;36.83;99922.03;5033940;28;20052;-76
2021/05/14 12:51:29;;;;;;;7.05;3.75;;;;;;;22.73;39.52;99918.44;5019845;28;20048;-76
2021/05/14 12:54:21;;;;;;;7.10;3.78;;;;;;;22.57;39.85;99921.78;5027007;28;20074;-76
2021/05/14 12:57:06;;;;;;;9.85;4.07;;;;;;;22.63;40.31;99922.09;5036687;28;20069;-77
2021/05/14 12:59:51;;;;;;;8.20;5.25;;;;;;;22.25;41.41;99923.38;5034420;28;20053;-76
2021/05/14 13:02:55;;;;;;;9.63;6.43;;;;;;;21.97;41.84;99925.25;5015963;28;20049;-76
2021/05/14 13:05:41;;;;;;;10.65;6.00;;;;;;;22.07;41.42;99924.34;5015906;28;20049;-77
2021/05/14 13:08:26;;;;;;;11.40;6.22;;;;;;;21.97;41.91;99925.25;5013185;28;20045;-76
2021/05/14 13:11:13;;;;;;;10.63;6.63;;;;;;;21.79;42.72;99924.59;5014330;28;20057;-76
2021/05/14 13:13:57;;;;;;;8.75;5.13;;;;;;;21.45;43.28;99938.34;5011943;28;20442;-78
2021/05/14 13:19:46;;;;;;;4.53;1.40;;;;;;;20.83;43.42;99955.72;5014733;28;20049;-75
2021/05/14 13:22:30;;;;;;;;;;;;;;;20.40;43.54;99955.13;5013155;28;20045;-77
2021/05/14 13:25:15;;;;;;;2.15;0.90;;;;;;;20.41;43.07;99956.72;5013709;28;20297;-77
2021/05/14 13:28:00;;;;;;;1.92;0.68;;;;;;;20.33;43.50;99955.13;5016882;28;20052;-77
2021/05/14 13:30:45;;;;;;;;;;;;;;;20.23;43.90;99969.72;5015756;28;20053;-77
2021/05/14 13:33:30;;;;;;;5.20;0.77;;;;;;;20.14;44.07;99966.59;5015294;28;20369;-76
2021/05/14 13:36:15;;;;;;;;;;;;;;;20.15;44.40;99951.63;5023959;28;20040;-77
2021/05/14 13:38:59;;;;;;;4.13;0.70;;;;;;;19.89;46.13;99947.34;5025152;28;19913;-77
2021/05/14 13:41:44;;;;;;;;;;;;;;;19.85;47.29;99937.50;5011251;28;20110;-77
2021/05/14 13:44:29;;;;;;;1.42;0.43;;;;;;;19.58;48.60;99946.19;5016287;28;19913;-77
2021/05/14 13:47:15;;;;;;;2.22;0.38;;;;;;;19.45;48.58;99941.47;5020304;28;20069;-81
2021/05/14 13:50:01;;;;;;;6.10;0.65;;;;;;;19.42;48.15;99943.00;5018433;28;20053;-80
2021/05/14 13:55:49;;;;;;;5.47;0.57;;;;;;;19.48;48.25;99946.19;5019167;28;20517;-80
2021/05/14 13:58:34;;;;;;;1.25;0.40;;;;;;;19.58;48.03;99946.19;5016279;28;20045;-80
2021/05/14 14:01:19;;;;;;;;;;;;;;;19.69;47.73;99945.38;5015034;28;20045;-80
2021/05/14 14:04:04;;;;;;;2.50;0.52;;;;;;;19.55;47.99;99929.63;5019636;28;19932;-80
2021/05/14 14:06:49;;;;;;;1.73;0.50;;;;;;;19.64;47.64;99930.81;5021515;28;20049;-80
2021/05/14 14:09:35;;;;;;;1.25;0.43;;;;;;;19.68;46.99;99930.00;5014377;28;20521;-80
2021/05/14 14:12:20;;;;;;;3.03;0.30;;;;;;;19.72;46.91;99923.31;5018052;28;20049;-80
2021/05/14 14:15:06;;;;;;;;;;;;;;;19.79;46.75;99930.78;5000817;28;20040;-80
2021/05/14 14:17:51;;;;;;;2.88;0.40;;;;;;;19.72;45.75;99920.53;5021114;28;19913;-80
2021/05/14 14:20:35;;;;;;;;;;;;;;;19.76;46.37;99931.59;5018670;28;20406;-78
2021/05/14 14:23:20;;;;;;;0.80;0.35;;;;;;;19.69;46.36;99926.06;5016250;28;19913;-80